This is the latest recevied weather packets stored in our database for station/object WP3OF-5. If no packets are shown the sender has not sent any weather packets the latest 10 day(s).
| Time | Temp. | Humidity | Pressure | Rain* | Wind** | Luminosity | Snow |
|---|---|---|---|---|---|---|---|
| 1778178295 | 28.33° C | 72% | 1015.8 hPa | 0 mm | - | - | - |
| 1778177991 | 28.89° C | 71% | 1016 hPa | 0 mm | - | - | - |
| 1778177688 | 29.44° C | 69% | 1016.1 hPa | 0 mm | - | - | - |
| 1778177384 | 30° C | 68% | 1016.2 hPa | 0 mm | - | - | - |
| 1778177081 | 30.56° C | 67% | 1016.1 hPa | 0 mm | - | - | - |
| 1778176777 | 31.67° C | 65% | 1016 hPa | 0 mm | - | - | - |
| 1778176474 | 31.11° C | 67% | 1016 hPa | 0 mm | - | - | - |
| 1778176172 | 30.56° C | 67% | 1016.3 hPa | 0 mm | - | - | - |
| 1778175869 | 30.56° C | 68% | 1016.3 hPa | 0 mm | - | - | - |
| 1778175566 | 30.56° C | 67% | 1016.4 hPa | 0 mm | - | - | - |
| 1778175263 | 31.67° C | 67% | 1016.4 hPa | 0 mm | - | - | - |
| 1778174960 | 31.67° C | 66% | 1016.3 hPa | 0 mm | - | - | - |
| 1778174657 | 31.67° C | 65% | 1016.6 hPa | 0 mm | - | - | - |
| 1778174353 | 31.67° C | 64% | 1016.5 hPa | 0 mm | - | - | - |
| 1778174049 | 30.56° C | 67% | 1016.4 hPa | 0 mm | - | - | - |
| 1778173747 | 30.56° C | 67% | 1016.7 hPa | 0 mm | - | - | - |
| 1778173443 | 30.56° C | 69% | 1016.6 hPa | 0 mm | - | - | - |
| 1778173139 | 31.11° C | 67% | 1016.7 hPa | 0 mm | - | - | - |
| 1778172835 | 30.56° C | 69% | 1016.9 hPa | 0 mm | - | - | - |
| 1778172531 | 29.44° C | 72% | 1017 hPa | 0 mm | - | - | - |
| 1778172228 | 30.56° C | 69% | 1017.3 hPa | 0 mm | - | - | - |
| 1778171926 | 30.56° C | 69% | 1017.1 hPa | 0 mm | - | - | - |
| 1778171623 | 30.56° C | 69% | 1017.2 hPa | 0 mm | - | - | - |
| 1778171319 | 30.56° C | 68% | 1017.2 hPa | 0 mm | - | - | - |
| 1778171015 | 30° C | 71% | 1017.2 hPa | 0 mm | - | - | - |
* Rain latest hour (hover to see other rain measurements)
** Current wind speed in m/s (hover to see current wind gust speed)